createdAt,value
2019-05-20T00:00:08.732Z,14.69
2019-05-20T00:02:37.559Z,14.58
2019-05-20T00:05:09.025Z,14.64
2019-05-20T00:07:37.779Z,14.63
2019-05-20T00:10:08.047Z,14.62
2019-05-20T00:12:36.704Z,14.57
2019-05-20T00:15:06.562Z,14.59
2019-05-20T00:17:37.188Z,14.62
2019-05-20T00:20:08.151Z,14.49
2019-05-20T00:22:36.855Z,14.54
2019-05-20T00:25:06.990Z,14.44
2019-05-20T00:27:36.050Z,14.49
2019-05-20T00:30:06.304Z,14.44
2019-05-20T00:32:41.225Z,14.47
2019-05-20T00:35:07.746Z,14.37
2019-05-20T00:37:36.446Z,14.32
2019-05-20T00:40:07.499Z,14.18
2019-05-20T00:42:39.008Z,14.12
2019-05-20T00:45:08.294Z,14.14
2019-05-20T00:47:36.869Z,14.16
2019-05-20T00:50:06.809Z,14.13
2019-05-20T00:52:38.087Z,14.13
2019-05-20T00:55:09.051Z,14.27
2019-05-20T00:57:37.766Z,14.18
2019-05-20T01:00:08.129Z,14.21
2019-05-20T01:02:36.795Z,14.33
2019-05-20T01:05:06.161Z,14.21
2019-05-20T01:07:35.233Z,14.28
2019-05-20T01:10:05.533Z,14.17
2019-05-20T01:12:35.881Z,14.16
2019-05-20T01:15:06.321Z,14.16
2019-05-20T01:17:35.072Z,14.10
2019-05-20T01:20:07.238Z,14.20
2019-05-20T01:22:37.442Z,14.08
2019-05-20T01:25:09.192Z,14.13
2019-05-20T01:27:37.887Z,14.17
2019-05-20T01:30:11.213Z,14.13
2019-05-20T01:32:39.915Z,14.07
2019-05-20T01:35:09.383Z,14.01
2019-05-20T01:37:38.142Z,14.11
2019-05-20T01:40:07.482Z,14.02
2019-05-20T01:42:39.001Z,14.04
2019-05-20T01:45:08.135Z,14.00
2019-05-20T01:47:36.852Z,14.01
2019-05-20T01:50:09.128Z,14.06
2019-05-20T01:52:37.880Z,14.01
2019-05-20T01:55:08.162Z,14.04
2019-05-20T01:57:37.209Z,14.08
2019-05-20T02:00:07.997Z,13.93
2019-05-20T02:02:36.745Z,13.93
2019-05-20T02:05:08.213Z,14.01
2019-05-20T02:07:36.962Z,13.95
2019-05-20T02:10:07.436Z,13.90
2019-05-20T02:12:37.649Z,13.91
2019-05-20T02:15:19.884Z,13.95
2019-05-20T02:17:48.617Z,13.83
2019-05-20T02:20:17.328Z,13.85
2019-05-20T02:22:46.038Z,13.83
2019-05-20T02:25:15.023Z,13.79
2019-05-20T02:27:43.776Z,13.82
2019-05-20T02:30:12.763Z,13.78
2019-05-20T02:32:41.432Z,13.78
2019-05-20T02:35:10.245Z,13.75
2019-05-20T02:37:38.952Z,13.70
2019-05-20T02:40:08.603Z,13.75
2019-05-20T02:42:37.475Z,13.75
2019-05-20T02:45:09.614Z,13.69
2019-05-20T02:47:38.331Z,13.71
2019-05-20T02:50:07.358Z,13.73
2019-05-20T02:52:37.674Z,13.64
2019-05-20T02:55:09.403Z,13.66
2019-05-20T02:57:38.017Z,13.63
2019-05-20T03:00:08.051Z,13.65
2019-05-20T03:02:36.725Z,13.66
2019-05-20T03:05:07.104Z,13.63
2019-05-20T03:07:35.857Z,13.50
2019-05-20T03:10:06.547Z,13.55
2019-05-20T03:12:36.671Z,13.55
2019-05-20T03:15:06.514Z,13.54
2019-05-20T03:17:36.688Z,13.62
2019-05-20T03:20:06.378Z,13.55
2019-05-20T03:22:35.053Z,13.62
2019-05-20T03:25:05.403Z,13.64
2019-05-20T03:27:35.748Z,13.63
2019-05-20T03:30:05.811Z,13.58
2019-05-20T03:32:37.722Z,13.55
2019-05-20T03:35:08.186Z,13.57
2019-05-20T03:37:37.198Z,13.61
2019-05-20T03:40:07.463Z,13.61
2019-05-20T03:42:39.154Z,13.59
2019-05-20T03:45:08.210Z,13.63
2019-05-20T03:47:36.937Z,13.60
2019-05-20T03:50:08.906Z,13.62
2019-05-20T03:52:37.648Z,13.63
2019-05-20T03:55:08.048Z,13.62
2019-05-20T03:57:36.766Z,13.63
2019-05-20T04:00:07.437Z,13.66
2019-05-20T04:02:39.192Z,13.66
2019-05-20T04:05:07.908Z,13.67
2019-05-20T04:07:36.627Z,13.65
2019-05-20T04:10:06.993Z,13.73
2019-05-20T04:12:35.702Z,13.77
2019-05-20T04:15:05.724Z,13.78
2019-05-20T04:17:34.783Z,13.80
2019-05-20T04:20:06.463Z,13.90
2019-05-20T04:22:36.674Z,13.97
2019-05-20T04:25:06.595Z,14.00
2019-05-20T04:27:36.785Z,13.92
2019-05-20T04:30:07.250Z,13.94
2019-05-20T04:32:37.420Z,13.93
2019-05-20T04:35:21.419Z,13.94
2019-05-20T04:37:39.451Z,13.85
2019-05-20T04:40:08.346Z,13.92
2019-05-20T04:42:37.116Z,13.94
2019-05-20T04:45:06.934Z,14.01
2019-05-20T04:47:35.648Z,14.03
2019-05-20T04:50:08.596Z,14.09
2019-05-20T04:52:37.688Z,14.15
2019-05-20T04:55:06.611Z,14.21
2019-05-20T04:57:37.070Z,14.33
2019-05-20T05:00:09.679Z,14.44
2019-05-20T05:02:38.404Z,14.57
2019-05-20T05:05:08.000Z,14.57
2019-05-20T05:07:36.758Z,14.70
2019-05-20T05:10:08.264Z,14.74
2019-05-20T05:12:37.154Z,14.77
2019-05-20T05:15:10.609Z,14.77
2019-05-20T05:17:39.346Z,14.77
2019-05-20T05:20:17.507Z,14.66
2019-05-20T05:22:38.702Z,14.75
2019-05-20T05:25:07.752Z,14.78
2019-05-20T05:27:36.712Z,14.81
2019-05-20T05:30:08.285Z,14.87
2019-05-20T05:32:43.996Z,14.94
2019-05-20T05:35:15.079Z,15.06
2019-05-20T05:37:44.016Z,15.21
2019-05-20T05:40:12.862Z,15.36
2019-05-20T05:42:41.538Z,15.50
2019-05-20T05:45:10.966Z,15.70
2019-05-20T05:47:39.646Z,15.73
2019-05-20T05:50:09.069Z,15.86
2019-05-20T05:52:38.053Z,15.98
2019-05-20T05:55:06.987Z,16.08
2019-05-20T05:57:35.665Z,16.17
2019-05-20T06:00:06.639Z,16.32
2019-05-20T06:02:36.741Z,16.42
2019-05-20T06:05:06.379Z,16.57
2019-05-20T06:07:35.029Z,16.65
2019-05-20T06:10:05.248Z,16.79
2019-05-20T06:12:33.995Z,16.85
2019-05-20T06:15:02.803Z,16.88
2019-05-20T06:17:32.514Z,16.95
2019-05-20T06:20:01.187Z,16.98
2019-05-20T06:22:29.847Z,17.05
2019-05-20T06:24:58.497Z,17.06
2019-05-20T06:27:27.145Z,17.05
2019-05-20T06:29:55.807Z,17.09
2019-05-20T06:32:24.850Z,17.19
2019-05-20T06:34:53.541Z,17.38
2019-05-20T06:37:23.900Z,17.42
2019-05-20T06:39:52.622Z,17.40
2019-05-20T06:42:21.339Z,17.56
2019-05-20T06:44:52.910Z,17.68
2019-05-20T06:47:20.507Z,17.82
2019-05-20T06:49:49.329Z,17.95
2019-05-20T06:52:33.261Z,18.05
2019-05-20T06:54:48.608Z,18.10
2019-05-20T06:57:17.260Z,18.19
2019-05-20T06:59:46.037Z,18.27
2019-05-20T07:02:14.698Z,18.42
2019-05-20T07:04:43.675Z,18.53
2019-05-20T07:07:20.575Z,18.58
2019-05-20T07:09:42.848Z,18.70
2019-05-20T07:12:11.563Z,18.86
2019-05-20T07:14:40.290Z,18.98
2019-05-20T07:17:09.005Z,19.13
2019-05-20T07:19:37.834Z,19.26
2019-05-20T07:22:06.548Z,19.25
2019-05-20T07:24:36.702Z,19.34
2019-05-20T07:27:08.504Z,19.38
2019-05-20T07:29:37.324Z,19.20
2019-05-20T07:32:07.496Z,19.37
2019-05-20T07:34:38.842Z,19.53
2019-05-20T07:37:07.608Z,19.60
2019-05-20T07:39:36.423Z,19.58
2019-05-20T07:42:06.602Z,19.50
2019-05-20T07:44:38.214Z,19.44
2019-05-20T07:47:06.869Z,19.55
2019-05-20T07:49:36.002Z,19.57
2019-05-20T07:52:05.517Z,19.73
2019-05-20T07:54:37.359Z,19.80
2019-05-20T07:57:09.052Z,19.97
2019-05-20T07:59:40.059Z,20.17
2019-05-20T08:02:09.411Z,20.33
2019-05-20T08:04:38.099Z,20.34
2019-05-20T08:07:26.247Z,20.36
2019-05-20T08:09:44.639Z,20.54
2019-05-20T08:12:07.700Z,20.47
2019-05-20T08:14:36.818Z,20.44
2019-05-20T08:17:08.480Z,20.43
2019-05-20T08:19:37.196Z,20.56
2019-05-20T08:22:07.760Z,20.64
2019-05-20T08:24:36.472Z,20.78
2019-05-20T08:27:06.729Z,20.92
2019-05-20T08:29:38.538Z,20.96
2019-05-20T08:32:07.236Z,21.19
2019-05-20T08:34:38.590Z,21.32
2019-05-20T08:37:08.007Z,21.48
2019-05-20T08:39:37.271Z,21.59
2019-05-20T08:42:07.636Z,21.68
2019-05-20T08:44:36.523Z,21.76
2019-05-20T08:47:06.712Z,21.86
2019-05-20T08:49:36.796Z,22.03
2019-05-20T08:52:08.667Z,21.97
2019-05-20T08:54:40.231Z,22.04
2019-05-20T08:57:07.735Z,22.28
2019-05-20T08:59:36.446Z,22.10
2019-05-20T09:02:06.603Z,21.79
2019-05-20T09:04:35.466Z,21.96
2019-05-20T09:07:04.543Z,22.07
2019-05-20T09:09:33.434Z,22.05
2019-05-20T09:12:02.205Z,22.11
2019-05-20T09:14:31.315Z,22.18
2019-05-20T09:16:59.894Z,22.28
2019-05-20T09:19:28.598Z,22.34
2019-05-20T09:21:57.422Z,22.33
2019-05-20T09:24:26.145Z,22.66
2019-05-20T09:26:54.857Z,22.94
2019-05-20T09:29:23.532Z,23.33
2019-05-20T09:31:52.500Z,23.20
2019-05-20T09:34:21.221Z,23.29
2019-05-20T09:36:50.032Z,23.27
2019-05-20T09:39:18.731Z,23.25
2019-05-20T09:41:47.553Z,23.43
2019-05-20T09:44:16.259Z,23.42
2019-05-20T09:46:44.974Z,23.48
2019-05-20T09:49:13.685Z,23.78
2019-05-20T09:51:42.393Z,24.13
2019-05-20T09:54:11.104Z,24.49
2019-05-20T09:56:39.818Z,24.70
2019-05-20T09:59:08.531Z,24.82
2019-05-20T10:01:39.970Z,25.11
2019-05-20T10:04:07.694Z,25.28
2019-05-20T10:06:36.507Z,25.29
2019-05-20T10:09:06.549Z,25.16
2019-05-20T10:11:37.021Z,25.41
2019-05-20T10:14:05.750Z,25.48
2019-05-20T10:16:34.399Z,25.66
2019-05-20T10:19:03.183Z,25.30
2019-05-20T10:21:31.888Z,24.86
2019-05-20T10:24:01.050Z,24.26
2019-05-20T10:26:29.824Z,23.80
2019-05-20T10:28:58.483Z,23.46
2019-05-20T10:31:27.151Z,23.39
2019-05-20T10:33:55.790Z,23.35
2019-05-20T10:36:24.438Z,23.32
2019-05-20T10:38:58.556Z,23.39
2019-05-20T10:41:23.613Z,23.56
2019-05-20T10:43:52.267Z,23.91
2019-05-20T10:46:21.038Z,24.21
2019-05-20T10:48:50.224Z,24.08
2019-05-20T10:51:18.933Z,24.06
2019-05-20T10:53:47.749Z,24.37
2019-05-20T10:56:16.459Z,24.58
2019-05-20T10:58:45.172Z,24.63
2019-05-20T11:01:13.886Z,24.79
2019-05-20T11:03:42.902Z,24.59
2019-05-20T11:06:11.604Z,24.63
2019-05-20T11:08:40.428Z,24.51
2019-05-20T11:11:13.928Z,24.52
2019-05-20T11:13:39.705Z,24.51
2019-05-20T11:16:08.533Z,24.70
2019-05-20T11:18:37.266Z,24.98
2019-05-20T11:21:07.567Z,24.89
2019-05-20T11:23:37.484Z,24.88
2019-05-20T11:26:09.356Z,25.01
2019-05-20T11:28:38.517Z,24.87
2019-05-20T11:31:07.533Z,24.90
2019-05-20T11:33:39.326Z,24.78
2019-05-20T11:36:08.030Z,25.03
2019-05-20T11:38:36.856Z,25.24
2019-05-20T11:41:05.618Z,25.21
2019-05-20T11:43:34.482Z,25.51
2019-05-20T11:46:03.194Z,25.62
2019-05-20T11:48:32.008Z,25.90
2019-05-20T11:51:00.717Z,25.71
2019-05-20T11:53:29.533Z,25.32
2019-05-20T11:55:58.553Z,24.90
2019-05-20T11:58:27.262Z,25.26
2019-05-20T12:00:56.104Z,25.47
2019-05-20T12:03:25.225Z,25.66
2019-05-20T12:05:53.906Z,25.29
2019-05-20T12:08:22.672Z,25.22
2019-05-20T12:10:51.390Z,24.86
2019-05-20T12:13:20.096Z,24.76
2019-05-20T12:15:48.705Z,24.45
2019-05-20T12:18:17.452Z,24.71
2019-05-20T12:20:46.132Z,24.72
2019-05-20T12:23:14.844Z,24.82
2019-05-20T12:25:43.555Z,24.79
2019-05-20T12:28:12.268Z,24.71
2019-05-20T12:30:41.084Z,24.77
2019-05-20T12:33:18.431Z,24.79
2019-05-20T12:35:40.348Z,24.94
2019-05-20T12:38:09.267Z,24.98
2019-05-20T12:40:37.989Z,24.99
2019-05-20T12:43:06.701Z,24.82
2019-05-20T12:45:38.322Z,24.80
2019-05-20T12:48:07.110Z,24.98
2019-05-20T12:50:35.968Z,24.65
2019-05-20T12:53:07.741Z,24.27
2019-05-20T12:55:36.405Z,24.08
2019-05-20T12:58:06.609Z,23.77
2019-05-20T13:00:36.888Z,23.68
2019-05-20T13:03:08.560Z,23.57
2019-05-20T13:05:37.215Z,23.37
2019-05-20T13:08:07.457Z,23.18
2019-05-20T13:10:39.131Z,23.11
2019-05-20T13:13:08.170Z,23.02
2019-05-20T13:15:36.855Z,22.96
2019-05-20T13:18:08.960Z,22.78
2019-05-20T13:20:37.683Z,22.64
2019-05-20T13:23:09.184Z,22.63
2019-05-20T13:25:37.048Z,22.45
2019-05-20T13:28:05.759Z,22.39
2019-05-20T13:30:34.473Z,22.38
2019-05-20T13:33:03.309Z,22.25
2019-05-20T13:35:32.096Z,22.16
2019-05-20T13:38:00.805Z,22.05
2019-05-20T13:40:45.180Z,21.94
2019-05-20T13:42:59.975Z,21.83
2019-05-20T13:45:28.647Z,21.77
2019-05-20T13:47:57.401Z,21.65
2019-05-20T13:50:26.106Z,21.77
2019-05-20T13:52:54.826Z,21.63
2019-05-20T13:55:23.550Z,21.52
2019-05-20T13:57:52.278Z,21.42
2019-05-20T14:00:21.402Z,21.28
2019-05-20T14:02:50.521Z,21.10
2019-05-20T14:05:19.650Z,20.88
2019-05-20T14:07:48.372Z,20.64
2019-05-20T14:10:17.395Z,20.44
2019-05-20T14:12:46.614Z,20.19
2019-05-20T14:15:15.737Z,20.20
2019-05-20T14:17:44.458Z,20.18
2019-05-20T14:20:13.669Z,20.11
2019-05-20T14:22:43.099Z,20.13
2019-05-20T14:25:12.017Z,19.81
2019-05-20T14:27:41.036Z,19.47
2019-05-20T14:30:10.472Z,19.13
2019-05-20T14:32:39.183Z,19.08
2019-05-20T14:35:08.415Z,18.89
2019-05-20T14:37:37.133Z,18.64
2019-05-20T14:40:07.081Z,18.08
2019-05-20T14:42:35.849Z,17.71
2019-05-20T14:45:05.542Z,17.38
2019-05-20T14:47:36.216Z,17.25
2019-05-20T14:50:09.243Z,17.08
2019-05-20T14:52:37.966Z,16.85
2019-05-20T14:55:07.351Z,16.58
2019-05-20T14:57:37.486Z,16.54
2019-05-20T15:00:09.668Z,16.42
2019-05-20T15:02:38.426Z,16.40
2019-05-20T15:05:08.438Z,16.31
2019-05-20T15:07:37.192Z,16.28
2019-05-20T15:10:09.480Z,16.36
2019-05-20T15:12:38.154Z,16.33
2019-05-20T15:15:07.415Z,16.27
2019-05-20T15:17:37.987Z,16.20
2019-05-20T15:20:07.828Z,16.10
2019-05-20T15:22:36.642Z,16.06
2019-05-20T15:25:07.199Z,15.96
2019-05-20T15:27:37.358Z,15.90
2019-05-20T15:30:10.509Z,16.03
2019-05-20T15:32:39.170Z,15.90
2019-05-20T15:35:08.284Z,15.89
2019-05-20T15:37:37.132Z,15.91
2019-05-20T15:40:07.395Z,16.05
2019-05-20T15:42:38.997Z,16.14
2019-05-20T15:45:08.945Z,16.24
2019-05-20T15:47:37.658Z,16.20
2019-05-20T15:50:09.974Z,16.32
2019-05-20T15:52:38.198Z,16.35
2019-05-20T15:55:07.666Z,16.35
2019-05-20T15:57:36.355Z,16.55
2019-05-20T16:00:08.943Z,16.69
2019-05-20T16:02:37.870Z,16.76
2019-05-20T16:05:08.526Z,16.92
2019-05-20T16:07:37.349Z,16.93
2019-05-20T16:10:07.562Z,17.05
2019-05-20T16:12:39.013Z,17.29
2019-05-20T16:15:08.787Z,17.66
2019-05-20T16:17:37.546Z,17.99
2019-05-20T16:20:09.405Z,18.21
2019-05-20T16:22:38.050Z,18.13
2019-05-20T16:25:07.912Z,18.45
2019-05-20T16:27:36.722Z,18.51
2019-05-20T16:30:12.093Z,18.66
2019-05-20T16:32:40.707Z,18.65
2019-05-20T16:35:10.009Z,18.57
2019-05-20T16:37:38.843Z,18.50
2019-05-20T16:40:11.433Z,18.60
2019-05-20T16:42:40.671Z,18.63
2019-05-20T16:45:11.858Z,18.66
2019-05-20T16:47:40.452Z,18.83
2019-05-20T16:50:10.335Z,18.96
2019-05-20T16:52:39.025Z,19.04
2019-05-20T16:55:08.738Z,19.29
2019-05-20T16:57:37.593Z,19.05
2019-05-20T17:00:29.241Z,19.18
2019-05-20T17:02:40.093Z,19.25
2019-05-20T17:05:08.971Z,19.20
2019-05-20T17:07:37.918Z,19.17
2019-05-20T17:10:08.276Z,19.12
2019-05-20T17:12:37.134Z,18.93
2019-05-20T17:15:07.072Z,18.93
2019-05-20T17:17:35.787Z,18.88
2019-05-20T17:20:05.848Z,18.93
2019-05-20T17:22:35.164Z,18.93
2019-05-20T17:25:07.612Z,18.83
2019-05-20T17:27:39.768Z,18.76
2019-05-20T17:30:09.729Z,18.70
2019-05-20T17:32:38.414Z,18.74
2019-05-20T17:35:07.475Z,18.67
2019-05-20T17:37:39.866Z,18.59
2019-05-20T17:40:09.920Z,18.53
2019-05-20T17:42:39.934Z,18.41
2019-05-20T17:45:09.384Z,18.22
2019-05-20T17:47:38.204Z,18.14
2019-05-20T17:50:07.739Z,17.95
2019-05-20T17:52:36.656Z,18.05
2019-05-20T17:55:07.326Z,18.09
2019-05-20T17:57:37.994Z,17.94
2019-05-20T18:00:09.686Z,17.84
2019-05-20T18:02:38.601Z,17.73
2019-05-20T18:05:07.923Z,17.80
2019-05-20T18:07:36.643Z,17.67
2019-05-20T18:10:07.831Z,17.38
2019-05-20T18:12:36.547Z,17.36
2019-05-20T18:15:08.230Z,17.18
2019-05-20T18:17:36.936Z,17.21
2019-05-20T18:20:06.987Z,17.08
2019-05-20T18:22:35.713Z,17.07
2019-05-20T18:25:06.481Z,17.08
2019-05-20T18:27:36.639Z,16.96
2019-05-20T18:30:09.103Z,16.97
2019-05-20T18:32:38.650Z,16.96
2019-05-20T18:35:08.482Z,16.85
2019-05-20T18:37:37.158Z,16.78
2019-05-20T18:40:13.922Z,16.74
2019-05-20T18:42:37.861Z,16.62
2019-05-20T18:45:07.597Z,16.55
2019-05-20T18:47:39.296Z,16.45
2019-05-20T18:50:08.785Z,16.35
2019-05-20T18:52:37.797Z,16.25
2019-05-20T18:55:08.014Z,16.16
2019-05-20T18:57:36.746Z,16.12
2019-05-20T19:00:11.423Z,16.14
2019-05-20T19:02:40.122Z,16.14
2019-05-20T19:05:08.941Z,16.37
2019-05-20T19:07:38.077Z,16.38
2019-05-20T19:10:07.644Z,16.44
2019-05-20T19:12:39.146Z,16.55
2019-05-20T19:15:08.486Z,16.43
2019-05-20T19:17:37.941Z,16.43
2019-05-20T19:20:07.406Z,16.32
2019-05-20T19:22:38.071Z,16.26
2019-05-20T19:25:07.201Z,16.26
2019-05-20T19:27:39.122Z,16.07
2019-05-20T19:30:08.342Z,15.99
2019-05-20T19:32:37.125Z,15.82
2019-05-20T19:35:07.560Z,15.68
2019-05-20T19:37:39.281Z,15.57
2019-05-20T19:40:08.859Z,15.59
2019-05-20T19:42:38.083Z,15.45
2019-05-20T19:45:07.080Z,15.35
2019-05-20T19:47:35.872Z,15.38
2019-05-20T19:50:06.134Z,15.45
2019-05-20T19:52:34.952Z,15.41
2019-05-20T19:55:04.484Z,15.48
2019-05-20T19:57:33.207Z,15.38
2019-05-20T20:00:01.929Z,15.36
2019-05-20T20:02:30.648Z,15.35
2019-05-20T20:04:59.368Z,15.36
2019-05-20T20:07:28.867Z,15.31
2019-05-20T20:09:57.708Z,15.15
2019-05-20T20:12:26.422Z,15.10
2019-05-20T20:14:55.238Z,15.05
2019-05-20T20:17:23.958Z,15.02
2019-05-20T20:19:52.676Z,14.91
2019-05-20T20:22:21.385Z,14.89
2019-05-20T20:24:50.401Z,14.89
2019-05-20T20:27:19.121Z,14.83
2019-05-20T20:29:47.938Z,14.74
2019-05-20T20:32:16.656Z,14.67
2019-05-20T20:34:45.792Z,14.62
2019-05-20T20:37:14.489Z,14.63
2019-05-20T20:39:43.312Z,14.63
2019-05-20T20:42:12.978Z,14.57
2019-05-20T20:44:42.932Z,14.53
2019-05-20T20:47:12.226Z,14.46
2019-05-20T20:49:40.922Z,14.44
2019-05-20T20:52:09.851Z,14.41
2019-05-20T20:54:39.149Z,14.43
2019-05-20T20:57:09.001Z,14.42
2019-05-20T20:59:38.862Z,14.36
2019-05-20T21:02:07.962Z,14.36
2019-05-20T21:04:36.841Z,14.30
2019-05-20T21:07:27.298Z,14.27
2019-05-20T21:09:57.025Z,14.24
2019-05-20T21:12:27.288Z,14.19
2019-05-20T21:14:56.890Z,14.11
2019-05-20T21:17:26.934Z,14.17
2019-05-20T21:19:56.609Z,14.08
2019-05-20T21:22:25.486Z,13.99
2019-05-20T21:24:54.194Z,14.07
2019-05-20T21:27:23.010Z,14.06
2019-05-20T21:29:51.729Z,13.98
2019-05-20T21:32:20.431Z,13.93
2019-05-20T21:34:49.480Z,13.85
2019-05-20T21:37:18.271Z,13.81
2019-05-20T21:39:46.987Z,13.82
2019-05-20T21:42:15.699Z,13.83
2019-05-20T21:44:44.419Z,13.81
2019-05-20T21:47:13.463Z,13.64
2019-05-20T21:49:42.172Z,13.60
2019-05-20T21:52:10.893Z,13.51
2019-05-20T21:54:39.612Z,13.48
2019-05-20T21:57:08.421Z,13.61
2019-05-20T21:59:37.136Z,13.63
2019-05-20T22:02:06.281Z,13.70
2019-05-20T22:04:35.418Z,13.62
2019-05-20T22:07:05.983Z,13.63
2019-05-20T22:09:37.736Z,13.60
2019-05-20T22:12:06.589Z,13.59
2019-05-20T22:14:37.148Z,13.63
2019-05-20T22:17:06.178Z,13.58
2019-05-20T22:19:35.002Z,13.48
2019-05-20T22:22:17.648Z,13.49
2019-05-20T22:24:46.362Z,13.47
2019-05-20T22:27:15.071Z,13.61
2019-05-20T22:29:43.793Z,13.55
2019-05-20T22:32:12.619Z,13.51
2019-05-20T22:34:52.658Z,13.52
2019-05-20T22:37:11.809Z,13.40
2019-05-20T22:39:40.461Z,13.42
2019-05-20T22:42:09.247Z,13.47
2019-05-20T22:44:37.901Z,13.40
2019-05-20T22:47:06.584Z,13.36
2019-05-20T22:49:36.743Z,13.38
2019-05-20T22:52:08.443Z,13.31
2019-05-20T22:54:37.153Z,13.39
2019-05-20T22:57:05.867Z,13.40
2019-05-20T22:59:34.796Z,13.40
2019-05-20T23:02:06.085Z,13.37
2019-05-20T23:04:37.725Z,13.35
2019-05-20T23:07:06.691Z,13.34
2019-05-20T23:09:38.130Z,13.24
2019-05-20T23:12:06.891Z,13.29
2019-05-20T23:14:38.259Z,13.26
2019-05-20T23:17:06.975Z,13.26
2019-05-20T23:19:35.993Z,13.35
2019-05-20T23:22:08.908Z,13.27
2019-05-20T23:24:37.639Z,13.16
2019-05-20T23:27:06.414Z,13.10
2019-05-20T23:29:36.621Z,13.03
2019-05-20T23:32:08.418Z,13.00
2019-05-20T23:34:37.146Z,13.01
2019-05-20T23:37:07.160Z,13.07
2019-05-20T23:39:37.282Z,13.06
2019-05-20T23:42:07.439Z,13.04
2019-05-20T23:44:38.945Z,12.95
2019-05-20T23:47:07.662Z,13.01
2019-05-20T23:49:36.386Z,13.09
2019-05-20T23:52:06.945Z,13.03
2019-05-20T23:54:35.557Z,12.99
2019-05-20T23:57:04.685Z,12.95
2019-05-20T23:59:35.889Z,12.90
